Time;durP1;ratioP1;P1;durP2;ratioP2;P2;SDS_P1;SDS_P2;PMS_P1;PMS_P2;Temp;Humidity;BMP_temperature;BMP_pressure;BME280_temperature;BME280_humidity;BME280_pressure;Samples;Min_cycle;Max_cycle;Signal;HPM_P1;HPM_P2
2022/01/29 00:00:03;;;;;;;43.73;25.47;;;6.90;99.90;;;;;;5056489;28;20184;-72
2022/01/29 00:02:29;;;;;;;45.93;26.90;;;6.70;99.90;;;;;;5056197;28;20208;-72
2022/01/29 00:04:54;;;;;;;49.47;27.13;;;6.60;99.90;;;;;;5056135;28;20200;-72
2022/01/29 00:07:20;;;;;;;46.13;26.73;;;6.70;99.90;;;;;;5055919;28;20568;-73
2022/01/29 00:09:47;;;;;;;44.10;26.13;;;6.70;99.90;;;;;;5056349;28;20208;-72
2022/01/29 00:12:13;;;;;;;45.67;26.40;;;6.70;99.90;;;;;;5056005;28;20196;-72
2022/01/29 00:14:39;;;;;;;47.77;26.67;;;6.80;99.90;;;;;;5056182;28;20189;-73
2022/01/29 00:17:05;;;;;;;45.37;25.87;;;6.90;99.90;;;;;;5055886;28;20581;-72
2022/01/29 00:19:30;;;;;;;46.37;25.30;;;6.90;99.90;;;;;;5055871;28;20659;-73
2022/01/29 00:21:58;;;;;;;45.20;25.67;;;6.90;99.90;;;;;;5055486;28;20169;-73
2022/01/29 00:24:24;;;;;;;45.30;25.57;;;6.80;99.90;;;;;;5055954;28;20219;-73
2022/01/29 00:26:50;;;;;;;42.50;24.40;;;6.80;99.90;;;;;;5055696;28;20299;-73
2022/01/29 00:29:21;;;;;;;47.33;25.33;;;6.80;99.90;;;;;;5055887;28;20208;-73
2022/01/29 00:31:47;;;;;;;49.60;25.50;;;6.80;99.90;;;;;;5055765;28;20168;-73
2022/01/29 00:34:13;;;;;;;41.47;24.27;;;6.80;99.90;;;;;;5055520;28;20169;-72
2022/01/29 00:36:39;;;;;;;45.83;24.87;;;6.90;99.90;;;;;;5055273;28;20236;-71
2022/01/29 00:39:05;;;;;;;44.50;25.50;;;6.80;99.90;;;;;;5055670;28;20173;-72
2022/01/29 00:41:31;;;;;;;49.57;26.10;;;6.70;99.90;;;;;;5055655;28;20196;-72
2022/01/29 00:43:56;;;;;;;49.60;25.53;;;6.70;99.90;;;;;;5055633;28;20659;-72
2022/01/29 00:46:22;;;;;;;45.27;25.70;;;6.80;99.90;;;;;;5055257;28;20473;-73
2022/01/29 00:48:47;;;;;;;44.87;25.30;;;6.90;99.90;;;;;;5055220;28;20826;-72
2022/01/29 00:51:13;;;;;;;47.57;25.90;;;6.80;99.90;;;;;;5055039;28;20161;-72
2022/01/29 00:53:39;;;;;;;44.23;23.70;;;6.80;99.90;;;;;;5055418;28;20222;-72
2022/01/29 00:56:06;;;;;;;48.17;25.77;;;6.80;99.90;;;;;;5055235;28;20222;-72
2022/01/29 00:58:33;;;;;;;48.57;25.17;;;6.70;99.90;;;;;;5055308;28;20198;-72
2022/01/29 01:00:59;;;;;;;45.87;25.60;;;6.80;99.90;;;;;;5055044;28;20172;-72
2022/01/29 01:03:25;;;;;;;47.40;25.03;;;6.80;99.90;;;;;;5055019;28;20199;-71
2022/01/29 01:05:51;;;;;;;54.63;26.90;;;6.80;99.90;;;;;;5054628;28;20264;-72
2022/01/29 01:08:16;;;;;;;48.00;26.23;;;6.90;99.90;;;;;;5054958;28;20173;-73
2022/01/29 01:10:42;;;;;;;51.17;26.30;;;6.90;99.90;;;;;;5054921;28;20205;-72
2022/01/29 01:13:08;;;;;;;52.13;26.10;;;6.90;99.90;;;;;;5054698;28;20223;-72
2022/01/29 01:15:34;;;;;;;47.93;25.97;;;6.90;99.90;;;;;;5054831;28;20173;-72
2022/01/29 01:17:59;;;;;;;54.67;26.43;;;7.00;99.90;;;;;;5054828;28;20165;-71
2022/01/29 01:20:25;;;;;;;51.27;26.60;;;6.90;99.90;;;;;;5054791;28;20656;-72
2022/01/29 01:22:51;;;;;;;54.70;27.20;;;6.80;99.90;;;;;;5054634;28;20166;-71
2022/01/29 01:25:16;;;;;;;52.17;27.23;;;6.80;99.90;;;;;;5054802;28;20227;-72
2022/01/29 01:27:42;;;;;;;50.90;26.40;;;6.70;99.90;;;;;;5054809;28;20208;-71
2022/01/29 01:30:08;;;;;;;61.37;26.30;;;6.80;99.90;;;;;;5054642;28;20209;-72
2022/01/29 01:32:34;;;;;;;48.40;26.50;;;6.80;99.90;;;;;;5054508;28;20165;-72
2022/01/29 01:35:10;;;;;;;50.63;27.17;;;6.80;99.90;;;;;;5054081;28;20256;-72
2022/01/29 01:38:15;;;;;;;51.40;27.50;;;6.90;99.90;;;;;;5054438;28;20162;-72
2022/01/29 01:40:28;;;;;;;45.90;24.63;;;6.90;99.90;;;;;;5051249;28;20548;-71
2022/01/29 01:42:59;;;;;;;47.47;26.30;;;6.80;99.90;;;;;;5054470;28;20181;-72
2022/01/29 01:45:26;;;;;;;48.80;26.57;;;6.90;99.90;;;;;;5054264;28;20169;-72
2022/01/29 01:47:51;;;;;;;57.50;27.40;;;6.90;99.90;;;;;;5053494;28;20173;-72
2022/01/29 01:50:17;;;;;;;51.00;27.63;;;6.90;99.90;;;;;;5054221;28;20271;-73
2022/01/29 01:52:43;;;;;;;57.20;29.33;;;6.90;99.90;;;;;;5054201;28;20639;-73
2022/01/29 01:55:08;;;;;;;53.23;28.37;;;6.90;99.90;;;;;;5054191;28;20180;-73
2022/01/29 01:57:34;;;;;;;55.33;27.77;;;6.90;99.90;;;;;;5054289;28;20644;-73
2022/01/29 02:00:01;;;;;;;52.83;27.90;;;6.80;99.90;;;;;;5053994;28;20540;-73
2022/01/29 02:02:26;;;;;;;53.83;27.40;;;6.80;99.90;;;;;;5053439;28;20184;-72
2022/01/29 02:04:52;;;;;;;52.63;25.97;;;6.90;99.90;;;;;;5054247;28;20260;-72
2022/01/29 02:07:18;;;;;;;51.43;26.57;;;6.90;99.90;;;;;;5053844;28;20645;-73
2022/01/29 02:09:44;;;;;;;48.47;27.30;;;6.90;99.90;;;;;;5053971;28;20209;-71
2022/01/29 02:12:11;;;;;;;58.57;28.67;;;6.80;99.90;;;;;;5054020;28;20176;-73
2022/01/29 02:14:39;;;;;;;51.13;27.40;;;6.90;99.90;;;;;;5053712;28;20173;-72
2022/01/29 02:17:05;;;;;;;46.37;25.50;;;6.80;99.90;;;;;;5053186;28;20264;-72
2022/01/29 02:19:32;;;;;;;53.33;28.57;;;6.90;99.90;;;;;;5054041;28;20177;-73
2022/01/29 02:21:58;;;;;;;43.67;25.03;;;6.90;99.90;;;;;;5053829;28;20194;-72
2022/01/29 02:24:24;;;;;;;52.50;28.27;;;7.00;99.90;;;;;;5035697;28;20182;-73
2022/01/29 02:26:50;;;;;;;49.87;25.80;;;6.90;99.90;;;;;;5053527;28;20294;-73
2022/01/29 02:29:16;;;;;;;48.73;25.87;;;7.00;99.90;;;;;;5053489;28;20616;-72
2022/01/29 02:31:53;;;;;;;48.27;26.87;;;7.00;99.90;;;;;;5052894;28;20176;-73
2022/01/29 02:34:19;;;;;;;48.07;24.83;;;6.90;99.90;;;;;;5053680;28;20173;-72
2022/01/29 02:36:45;;;;;;;47.87;27.20;;;6.90;99.90;;;;;;5053350;28;20199;-72
2022/01/29 02:39:12;;;;;;;49.33;27.00;;;6.90;99.90;;;;;;5053463;28;20172;-72
2022/01/29 02:41:41;;;;;;;45.70;26.90;;;6.90;99.90;;;;;;5053338;28;20562;-72
2022/01/29 02:44:08;;;;;;;49.33;27.53;;;7.00;99.90;;;;;;5052907;28;20169;-72
2022/01/29 02:49:28;;;;;;;49.13;27.37;;;7.10;99.90;;;;;;5053206;28;20221;-73
2022/01/29 02:51:56;;;;;;;45.17;25.57;;;7.10;99.90;;;;;;5053275;28;20192;-73
2022/01/29 02:54:23;;;;;;;45.40;25.63;;;7.10;99.90;;;;;;5053130;28;20184;-73
2022/01/29 02:56:49;;;;;;;42.87;23.27;;;7.10;99.90;;;;;;5053173;28;20252;-72
2022/01/29 02:59:15;;;;;;;43.97;24.60;;;7.10;99.90;;;;;;5051901;28;20581;-72
2022/01/29 03:01:41;;;;;;;44.40;25.37;;;7.00;99.90;;;;;;5052887;28;20180;-72
2022/01/29 03:04:07;;;;;;;41.20;23.73;;;7.10;99.90;;;;;;5035232;28;20209;-73
2022/01/29 03:06:33;;;;;;;42.63;24.80;;;7.10;99.90;;;;;;5052981;28;20265;-71
2022/01/29 03:08:59;;;;;;;43.53;25.00;;;7.10;99.90;;;;;;5053011;28;20783;-72
2022/01/29 03:11:25;;;;;;;41.43;22.13;;;7.10;99.90;;;;;;5052792;28;20177;-72
2022/01/29 03:13:51;;;;;;;36.83;22.63;;;7.00;99.90;;;;;;5052762;28;20173;-72
2022/01/29 03:16:17;;;;;;;40.17;23.60;;;7.10;99.90;;;;;;5034667;28;20177;-73
2022/01/29 03:18:43;;;;;;;36.30;22.60;;;7.20;99.90;;;;;;5052910;28;20192;-73
2022/01/29 03:21:09;;;;;;;36.13;22.80;;;7.30;99.90;;;;;;5052789;28;20633;-72
2022/01/29 03:23:36;;;;;;;33.83;21.30;;;7.40;99.90;;;;;;5052743;28;20173;-72
2022/01/29 03:26:04;;;;;;;35.30;21.90;;;7.40;99.90;;;;;;5052426;28;20768;-72
2022/01/29 03:28:30;;;;;;;33.03;21.87;;;7.40;99.90;;;;;;5052762;28;20197;-72
2022/01/29 03:30:56;;;;;;;32.37;20.47;;;7.30;99.90;;;;;;5034947;28;20177;-72
2022/01/29 03:33:22;;;;;;;31.13;20.23;;;7.40;99.90;;;;;;5052843;28;20224;-72
2022/01/29 03:35:49;;;;;;;35.27;20.87;;;7.40;99.90;;;;;;5052840;28;20236;-72
2022/01/29 03:38:15;;;;;;;30.07;19.60;;;7.50;99.90;;;;;;5052753;28;20185;-72
2022/01/29 03:40:41;;;;;;;31.03;20.63;;;7.50;99.90;;;;;;5052467;28;20193;-72
2022/01/29 03:43:11;;;;;;;32.73;20.23;;;7.50;99.90;;;;;;5052229;28;20529;-73
2022/01/29 03:45:36;;;;;;;34.07;20.03;;;7.50;99.90;;;;;;5052643;28;20181;-72
2022/01/29 03:48:03;;;;;;;29.23;17.60;;;7.50;99.90;;;;;;5052919;28;20184;-73
2022/01/29 03:50:29;;;;;;;31.07;19.87;;;7.60;99.90;;;;;;5052638;28;20189;-73
2022/01/29 03:52:54;;;;;;;28.87;18.43;;;7.60;99.90;;;;;;5052453;28;20173;-73
2022/01/29 03:55:20;;;;;;;26.73;18.57;;;7.60;99.90;;;;;;5052584;28;20531;-73
2022/01/29 03:57:46;;;;;;;30.40;19.40;;;7.70;99.90;;;;;;5052263;28;20664;-73
2022/01/29 04:00:13;;;;;;;29.37;18.27;;;7.70;99.90;;;;;;5052475;28;20169;-73
2022/01/29 04:02:38;;;;;;;25.00;17.00;;;7.80;99.90;;;;;;5052763;28;20196;-72
2022/01/29 04:05:04;;;;;;;28.07;18.30;;;7.80;99.90;;;;;;5034747;28;20675;-73
2022/01/29 04:07:30;;;;;;;25.73;17.33;;;7.80;99.90;;;;;;5052300;28;20525;-72
2022/01/29 04:09:56;;;;;;;22.27;16.00;;;7.90;99.90;;;;;;5052821;28;20212;-73
2022/01/29 04:12:24;;;;;;;24.57;17.23;;;7.80;99.90;;;;;;5055529;28;20633;-72
2022/01/29 04:14:53;;;;;;;24.83;16.80;;;7.80;99.90;;;;;;5055991;28;20536;-73
2022/01/29 04:17:18;;;;;;;26.00;17.07;;;7.80;99.90;;;;;;5055978;28;20200;-73
2022/01/29 04:19:44;;;;;;;21.77;15.00;;;7.80;99.90;;;;;;5056196;28;20208;-73
2022/01/29 04:22:09;;;;;;;24.00;15.93;;;7.80;99.90;;;;;;5055801;28;20217;-73
2022/01/29 04:24:35;;;;;;;21.53;15.73;;;7.80;99.90;;;;;;5055917;28;20173;-73
2022/01/29 04:27:03;;;;;;;19.20;14.40;;;7.80;99.90;;;;;;5055273;28;20826;-73
2022/01/29 04:29:38;;;;;;;21.60;15.33;;;7.80;99.90;;;;;;5055861;28;20216;-73
2022/01/29 04:32:15;;;;;;;21.83;15.40;;;7.80;99.90;;;;;;5055734;28;20185;-72
2022/01/29 04:34:40;;;;;;;21.37;15.07;;;7.80;99.90;;;;;;5055706;28;20647;-74
2022/01/29 04:37:06;;;;;;;20.97;15.23;;;7.90;99.90;;;;;;5055625;28;20170;-72
2022/01/29 04:39:32;;;;;;;21.00;15.40;;;7.90;99.90;;;;;;5055415;28;20224;-73
2022/01/29 04:41:57;;;;;;;21.60;15.30;;;7.90;99.90;;;;;;5054855;28;20226;-73
2022/01/29 04:44:23;;;;;;;20.67;14.93;;;8.00;99.90;;;;;;5055601;28;20204;-72
2022/01/29 04:46:49;;;;;;;22.60;14.67;;;7.90;99.90;;;;;;5055393;28;20173;-73
2022/01/29 04:49:14;;;;;;;18.27;13.70;;;8.00;99.90;;;;;;5055020;28;20215;-72
2022/01/29 04:51:40;;;;;;;18.60;14.53;;;8.00;99.90;;;;;;5055414;28;20177;-73
2022/01/29 04:54:05;;;;;;;18.50;14.30;;;8.00;99.90;;;;;;5054913;28;20181;-73
2022/01/29 04:56:31;;;;;;;21.70;14.77;;;8.00;99.90;;;;;;5054878;28;20180;-74
2022/01/29 04:58:56;;;;;;;20.30;14.53;;;8.10;99.90;;;;;;5053769;28;20178;-74
2022/01/29 05:01:22;;;;;;;19.20;15.03;;;8.10;99.90;;;;;;5054934;28;20173;-73
2022/01/29 05:03:47;;;;;;;19.80;14.93;;;8.10;99.90;;;;;;5054816;28;20185;-72
2022/01/29 05:06:13;;;;;;;20.47;14.67;;;8.20;99.90;;;;;;5054269;28;20184;-72
2022/01/29 05:08:39;;;;;;;19.27;14.73;;;8.20;99.90;;;;;;5054692;28;20198;-72
2022/01/29 05:11:06;;;;;;;18.73;13.73;;;8.20;99.90;;;;;;5054256;28;20169;-72
2022/01/29 05:13:34;;;;;;;19.60;14.83;;;8.20;99.90;;;;;;5054686;28;20217;-72
2022/01/29 05:16:29;;;;;;;22.10;15.27;;;8.20;99.90;;;;;;5054433;28;20181;-72
2022/01/29 05:27:06;;;;;;;21.33;14.83;;;8.30;99.90;;;;;;5054407;28;20239;-72
2022/01/29 05:29:32;;;;;;;18.40;14.03;;;8.30;99.90;;;;;;5054682;28;20205;-72
2022/01/29 05:31:59;;;;;;;18.23;13.97;;;8.30;99.90;;;;;;5054645;28;20625;-72
2022/01/29 05:34:25;;;;;;;18.43;13.77;;;8.30;99.90;;;;;;5054406;28;20201;-72
2022/01/29 05:36:50;;;;;;;19.93;13.70;;;8.40;99.90;;;;;;5036528;28;20663;-72
2022/01/29 05:39:16;;;;;;;19.37;13.77;;;8.50;99.90;;;;;;5053810;28;20218;-72
2022/01/29 05:41:42;;;;;;;17.27;12.83;;;8.40;99.90;;;;;;5054398;28;20214;-72
2022/01/29 05:44:08;;;;;;;16.50;13.13;;;8.40;99.90;;;;;;5054228;28;20177;-72
2022/01/29 05:46:33;;;;;;;18.27;13.27;;;8.50;99.90;;;;;;5054097;28;20539;-72
2022/01/29 05:48:59;;;;;;;18.47;13.20;;;8.50;99.90;;;;;;5054145;28;20680;-72
2022/01/29 05:51:29;;;;;;;16.23;12.77;;;8.60;99.90;;;;;;5053891;28;20188;-73
2022/01/29 05:53:59;;;;;;;17.27;13.00;;;8.60;99.90;;;;;;5053250;28;20208;-73
2022/01/29 05:56:25;;;;;;;17.13;13.30;;;8.60;99.90;;;;;;5054116;28;20264;-73
2022/01/29 05:58:51;;;;;;;16.90;12.57;;;8.60;99.90;;;;;;5053764;28;20231;-72
2022/01/29 06:01:16;;;;;;;15.67;12.80;;;8.60;99.90;;;;;;5053989;28;20177;-72
2022/01/29 06:03:42;;;;;;;17.23;13.10;;;8.60;99.90;;;;;;5053562;28;20180;-72
2022/01/29 06:06:08;;;;;;;19.43;13.70;;;8.60;99.90;;;;;;5053329;28;20177;-72
2022/01/29 06:08:33;;;;;;;18.47;13.10;;;8.70;99.90;;;;;;5053051;28;20247;-72
2022/01/29 06:11:00;;;;;;;16.90;12.63;;;8.70;99.90;;;;;;5053705;28;20177;-72
2022/01/29 06:13:25;;;;;;;16.83;12.67;;;8.80;99.90;;;;;;5053587;28;20240;-73
2022/01/29 06:15:53;;;;;;;16.13;12.47;;;8.70;99.90;;;;;;5053465;28;20204;-72
2022/01/29 06:18:21;;;;;;;16.70;13.40;;;8.80;99.90;;;;;;5053678;28;20176;-73
2022/01/29 06:20:48;;;;;;;16.67;12.53;;;8.90;99.90;;;;;;5053391;28;20231;-72
2022/01/29 06:23:15;;;;;;;15.53;13.23;;;8.90;99.90;;;;;;5053148;28;20312;-73
2022/01/29 06:25:42;;;;;;;16.83;13.27;;;8.90;99.90;;;;;;5053399;28;20217;-73
2022/01/29 06:28:07;;;;;;;18.13;13.17;;;8.90;99.90;;;;;;5053491;28;20266;-72
2022/01/29 06:30:34;;;;;;;17.83;13.10;;;8.90;99.90;;;;;;5053322;28;20251;-72
2022/01/29 06:33:11;;;;;;;15.37;13.17;;;8.90;99.90;;;;;;5053148;28;20185;-72
2022/01/29 06:35:38;;;;;;;15.27;12.77;;;8.90;99.90;;;;;;5053198;28;20180;-72
2022/01/29 06:38:08;;;;;;;14.67;11.90;;;8.90;99.90;;;;;;5052829;28;20192;-72
2022/01/29 06:40:35;;;;;;;17.07;13.00;;;8.90;99.90;;;;;;5053095;28;20660;-73
2022/01/29 06:43:04;;;;;;;17.27;13.17;;;9.00;99.90;;;;;;5034612;28;20166;-71
2022/01/29 06:45:34;;;;;;;16.43;13.23;;;9.00;99.90;;;;;;5053316;28;20222;-72
2022/01/29 06:48:00;;;;;;;18.70;13.20;;;9.00;99.90;;;;;;5053251;28;20173;-73
2022/01/29 06:50:27;;;;;;;16.53;13.27;;;9.10;99.90;;;;;;5052728;28;20201;-72
2022/01/29 06:52:52;;;;;;;17.70;13.77;;;9.10;99.90;;;;;;5052866;28;20173;-73
2022/01/29 06:55:18;;;;;;;22.20;13.67;;;9.00;99.90;;;;;;5052997;28;20180;-72
2022/01/29 06:57:44;;;;;;;17.03;13.13;;;9.00;99.90;;;;;;5052501;28;20708;-72
2022/01/29 07:00:11;;;;;;;20.40;14.00;;;9.00;99.90;;;;;;5053014;28;20174;-72
2022/01/29 07:02:36;;;;;;;19.07;13.83;;;9.10;99.90;;;;;;5052829;28;20177;-72
2022/01/29 07:05:04;;;;;;;17.63;13.23;;;9.10;99.90;;;;;;5051497;28;20227;-73
2022/01/29 07:07:29;;;;;;;22.53;12.97;;;9.10;99.90;;;;;;5052166;28;20254;-72
2022/01/29 07:09:55;;;;;;;20.37;13.93;;;9.10;99.90;;;;;;5053091;28;20672;-73
2022/01/29 07:12:21;;;;;;;18.90;13.83;;;9.10;99.90;;;;;;5052318;28;20629;-72
2022/01/29 07:14:49;;;;;;;18.27;12.80;;;9.20;99.90;;;;;;5052582;28;20183;-72
2022/01/29 07:17:17;;;;;;;16.97;13.70;;;9.20;99.90;;;;;;5052533;28;20234;-71
2022/01/29 07:19:43;;;;;;;16.77;12.93;;;9.20;99.90;;;;;;5034478;28;20666;-73
2022/01/29 07:22:10;;;;;;;21.07;13.37;;;9.30;99.90;;;;;;5052000;28;20205;-72
2022/01/29 07:24:36;;;;;;;17.30;12.97;;;9.40;99.90;;;;;;5052887;28;20201;-72
2022/01/29 07:27:03;;;;;;;20.03;13.97;;;9.30;99.90;;;;;;5052476;28;20224;-72
2022/01/29 07:29:29;;;;;;;20.03;14.23;;;9.40;99.90;;;;;;5052329;28;20261;-72
2022/01/29 07:31:58;;;;;;;18.73;13.80;;;9.30;99.90;;;;;;5052579;28;20169;-74
2022/01/29 07:34:25;;;;;;;19.37;13.47;;;9.30;99.90;;;;;;5052258;28;20177;-72
2022/01/29 07:36:52;;;;;;;18.50;13.47;;;9.30;99.90;;;;;;5052137;28;20166;-72
2022/01/29 07:39:19;;;;;;;17.63;13.67;;;9.30;99.90;;;;;;5052448;28;20214;-71
2022/01/29 07:41:45;;;;;;;17.93;13.50;;;9.30;99.90;;;;;;5052524;28;20192;-71
2022/01/29 07:44:11;;;;;;;15.07;12.47;;;9.40;99.90;;;;;;5051873;28;20177;-72
2022/01/29 07:46:37;;;;;;;17.17;12.53;;;9.40;99.90;;;;;;5055378;28;20231;-73
2022/01/29 07:49:02;;;;;;;15.83;12.93;;;9.50;99.90;;;;;;5056261;28;20243;-71
2022/01/29 07:51:28;;;;;;;15.20;12.00;;;9.50;99.90;;;;;;5056092;28;20254;-72
2022/01/29 07:53:54;;;;;;;14.87;12.13;;;9.50;99.90;;;;;;5056388;28;20172;-72
2022/01/29 07:56:22;;;;;;;14.80;11.53;;;9.60;99.90;;;;;;5055801;28;20502;-72
2022/01/29 07:58:51;;;;;;;15.13;11.50;;;9.60;99.90;;;;;;5055269;28;20501;-73
2022/01/29 08:01:17;;;;;;;14.00;11.57;;;9.50;99.90;;;;;;5056043;28;20173;-72
2022/01/29 08:03:48;;;;;;;12.90;11.50;;;9.50;99.90;;;;;;5055934;28;20173;-73
2022/01/29 08:06:14;;;;;;;15.40;11.37;;;9.50;99.90;;;;;;5055306;28;20184;-72
2022/01/29 08:08:40;;;;;;;13.97;11.27;;;9.60;99.90;;;;;;5055798;28;20209;-73
2022/01/29 08:11:08;;;;;;;12.30;10.10;;;9.60;99.90;;;;;;5055648;28;20303;-73
2022/01/29 08:13:34;;;;;;;13.10;10.13;;;9.70;99.90;;;;;;5038307;28;20173;-72
2022/01/29 08:16:00;;;;;;;12.77;10.67;;;9.60;99.90;;;;;;5055670;28;20185;-73
2022/01/29 08:18:26;;;;;;;10.57;9.47;;;9.60;99.90;;;;;;5055396;28;20173;-72
2022/01/29 08:20:51;;;;;;;10.37;9.20;;;9.60;99.90;;;;;;5055064;28;20173;-72
2022/01/29 08:23:17;;;;;;;11.53;9.50;;;9.60;99.90;;;;;;5037696;28;20180;-72
2022/01/29 08:25:43;;;;;;;10.63;9.17;;;9.60;99.90;;;;;;5055516;28;20252;-73
2022/01/29 08:28:08;;;;;;;11.17;9.33;;;9.70;99.90;;;;;;5037630;28;20177;-72
2022/01/29 08:30:34;;;;;;;11.80;8.87;;;9.60;99.90;;;;;;5055243;28;20208;-72
2022/01/29 08:33:00;;;;;;;12.57;9.33;;;9.60;99.90;;;;;;5055635;28;20205;-72
2022/01/29 08:35:26;;;;;;;10.77;9.23;;;9.70;99.90;;;;;;5055266;28;20177;-72
2022/01/29 08:37:54;;;;;;;11.07;8.50;;;9.80;99.90;;;;;;5055002;28;20170;-72
2022/01/29 08:40:20;;;;;;;11.97;9.93;;;9.90;99.90;;;;;;5055215;28;20239;-72
2022/01/29 08:42:46;;;;;;;10.20;9.00;;;10.00;99.90;;;;;;5055494;28;20177;-72
2022/01/29 08:45:13;;;;;;;10.23;8.77;;;10.10;99.90;;;;;;5054861;28;20712;-72
2022/01/29 08:47:40;;;;;;;9.07;8.00;;;10.10;99.90;;;;;;5054330;28;20185;-71
2022/01/29 08:50:07;;;;;;;8.67;7.30;;;10.10;99.90;;;;;;5055106;28;20244;-72
2022/01/29 08:52:33;;;;;;;8.50;7.60;;;10.10;99.90;;;;;;5055126;28;20220;-72
2022/01/29 08:54:58;;;;;;;8.40;7.43;;;10.20;99.90;;;;;;5054618;28;20201;-72
2022/01/29 08:57:24;;;;;;;7.37;6.67;;;10.20;99.90;;;;;;5054535;28;20197;-73
2022/01/29 08:59:49;;;;;;;9.23;7.70;;;10.10;99.90;;;;;;5054796;28;20184;-72
2022/01/29 09:02:16;;;;;;;7.67;6.97;;;10.00;99.90;;;;;;5054488;28;20629;-72
2022/01/29 09:04:41;;;;;;;10.43;8.90;;;9.90;99.90;;;;;;5054815;28;20166;-72
2022/01/29 09:07:09;;;;;;;9.80;7.50;;;10.00;99.90;;;;;;5037014;28;20559;-73
2022/01/29 09:09:34;;;;;;;9.17;7.13;;;9.90;99.90;;;;;;5053932;28;20196;-73
2022/01/29 09:12:01;;;;;;;9.37;7.93;;;9.90;99.90;;;;;;5054524;28;20161;-73
2022/01/29 09:14:27;;;;;;;9.03;7.57;;;9.90;99.90;;;;;;5054934;28;20199;-73
2022/01/29 09:16:52;;;;;;;8.60;7.80;;;9.90;99.90;;;;;;5053914;28;20314;-73
2022/01/29 09:19:18;;;;;;;7.97;7.23;;;9.90;99.90;;;;;;5055276;28;20177;-73
2022/01/29 09:21:44;;;;;;;8.37;7.57;;;9.80;99.90;;;;;;5054029;28;20245;-72
2022/01/29 09:24:09;;;;;;;8.23;7.43;;;9.90;99.90;;;;;;5054537;28;20629;-72
2022/01/29 09:26:35;;;;;;;8.50;7.60;;;9.80;99.90;;;;;;5054418;28;20225;-72
2022/01/29 09:29:01;;;;;;;9.40;7.97;;;9.90;99.90;;;;;;5054417;28;20200;-73
2022/01/29 09:31:26;;;;;;;9.20;7.80;;;9.90;99.90;;;;;;5053866;28;20173;-71
2022/01/29 09:33:52;;;;;;;9.80;7.80;;;9.80;99.90;;;;;;5054710;28;20177;-73
2022/01/29 09:36:18;;;;;;;8.20;7.30;;;9.80;99.90;;;;;;5053763;28;20177;-72
2022/01/29 09:38:43;;;;;;;9.13;8.17;;;9.90;99.90;;;;;;5036523;28;20172;-72
2022/01/29 09:41:09;;;;;;;9.17;8.17;;;10.00;99.90;;;;;;5053988;28;20231;-72
2022/01/29 09:43:35;;;;;;;9.20;8.30;;;9.90;99.90;;;;;;5054189;28;20165;-73
2022/01/29 09:46:01;;;;;;;11.30;7.67;;;10.00;99.90;;;;;;5053609;28;20648;-72
2022/01/29 09:48:29;;;;;;;8.30;7.50;;;10.10;99.90;;;;;;5053570;28;20165;-72
2022/01/29 09:50:57;;;;;;;9.57;8.10;;;10.30;99.90;;;;;;5053416;28;20161;-73
2022/01/29 09:53:23;;;;;;;11.07;9.87;;;10.30;99.90;;;;;;5053966;28;20184;-73
2022/01/29 09:55:49;;;;;;;9.87;8.17;;;10.40;99.90;;;;;;5053614;28;20169;-72
2022/01/29 09:58:15;;;;;;;9.27;8.33;;;10.40;99.90;;;;;;5053282;28;20263;-72
2022/01/29 10:00:41;;;;;;;7.80;7.10;;;10.50;99.90;;;;;;5053592;28;20173;-73
2022/01/29 10:03:09;;;;;;;9.83;7.33;;;10.70;99.90;;;;;;5053447;28;20740;-73
2022/01/29 10:05:37;;;;;;;8.77;7.50;;;10.60;99.90;;;;;;5053662;28;20165;-72
2022/01/29 10:08:04;;;;;;;13.00;7.70;;;10.70;99.90;;;;;;5053030;28;20192;-72
2022/01/29 10:10:41;;;;;;;8.27;6.70;;;10.80;99.90;;;;;;5053422;28;20211;-72
2022/01/29 10:13:25;;;;;;;7.60;6.70;;;10.70;99.90;;;;;;5053259;28;20165;-72
2022/01/29 10:15:52;;;;;;;9.00;6.83;;;10.70;99.90;;;;;;5052917;28;20223;-72
2022/01/29 10:18:22;;;;;;;8.60;6.53;;;10.60;99.90;;;;;;5053482;28;20238;-72
2022/01/29 10:20:48;;;;;;;7.83;6.50;;;10.70;99.90;;;;;;5053026;28;20227;-72
2022/01/29 10:23:14;;;;;;;7.20;6.47;;;10.70;99.90;;;;;;5053293;28;20560;-73
2022/01/29 10:25:43;;;;;;;8.77;6.20;;;10.80;99.90;;;;;;5053420;28;20688;-72
2022/01/29 10:28:12;;;;;;;7.83;6.63;;;10.80;99.90;;;;;;5053082;28;20694;-72
2022/01/29 10:30:55;;;;;;;11.83;7.40;;;10.90;99.90;;;;;;5052477;28;20390;-73
2022/01/29 10:33:29;;;;;;;50.17;44.83;;;10.90;99.90;;;;;;5053106;28;20196;-72
2022/01/29 10:36:08;;;;;;;7.33;6.70;;;11.10;99.90;;;;;;5053242;28;20237;-72
2022/01/29 10:38:51;;;;;;;9.73;8.43;;;11.10;99.90;;;;;;5052788;28;20219;-72
2022/01/29 10:41:26;;;;;;;18.80;16.93;;;11.10;99.90;;;;;;5052690;28;20189;-72
2022/01/29 10:44:10;;;;;;;7.53;6.83;;;11.20;99.90;;;;;;5052143;28;20161;-72
2022/01/29 10:46:53;;;;;;;10.50;9.40;;;11.30;99.90;;;;;;5052826;28;20173;-72
2022/01/29 10:49:30;;;;;;;8.07;7.20;;;11.40;99.90;;;;;;5052554;28;20193;-72
2022/01/29 10:52:13;;;;;;;6.33;5.33;;;11.40;99.90;;;;;;5052975;28;20169;-72
2022/01/29 10:54:41;;;;;;;6.17;5.50;;;11.50;99.90;;;;;;5052796;28;20227;-72
2022/01/29 10:57:13;;;;;;;5.47;4.93;;;11.50;99.90;;;;;;5052595;28;20184;-71
2022/01/29 10:59:48;;;;;;;5.70;5.20;;;11.50;99.90;;;;;;5051918;28;20176;-72
2022/01/29 11:02:15;;;;;;;11.50;10.37;;;11.60;99.90;;;;;;5052705;28;20264;-72
2022/01/29 11:04:42;;;;;;;5.33;4.90;;;11.70;99.90;;;;;;5052085;28;20239;-72
2022/01/29 11:07:16;;;;;;;6.80;6.20;;;11.90;99.90;;;;;;5052363;28;20161;-72
2022/01/29 11:09:43;;;;;;;7.50;6.73;;;12.10;99.90;;;;;;5052500;28;20205;-71
2022/01/29 11:12:11;;;;;;;7.67;5.83;;;12.10;99.90;;;;;;5052090;28;20180;-72
2022/01/29 11:14:37;;;;;;;5.60;5.00;;;12.00;99.90;;;;;;5051971;28;20224;-72
2022/01/29 11:17:04;;;;;;;6.73;5.67;;;12.00;99.90;;;;;;5052002;28;20268;-71
2022/01/29 11:19:31;;;;;;;6.40;5.10;;;12.20;99.90;;;;;;5052657;28;20169;-72
2022/01/29 11:22:02;;;;;;;18.80;17.07;;;12.20;99.90;;;;;;5056227;28;20181;-72
2022/01/29 11:24:29;;;;;;;5.57;4.90;;;12.10;99.90;;;;;;5055771;28;20235;-72
2022/01/29 11:26:54;;;;;;;9.63;5.43;;;12.00;99.90;;;;;;5056540;28;20279;-72
2022/01/29 11:29:29;;;;;;;6.60;5.20;;;12.10;99.90;;;;;;5056140;28;20651;-71
2022/01/29 11:32:20;;;;;;;6.00;5.40;;;12.10;99.90;;;;;;5056320;28;20165;-72
2022/01/29 11:35:13;;;;;;;6.67;4.97;;;12.00;99.90;;;;;;5056362;28;20236;-71
2022/01/29 11:37:40;;;;;;;6.17;4.93;;;12.00;99.90;;;;;;5056530;28;20196;-72
2022/01/29 11:40:23;;;;;;;5.97;4.93;;;12.00;99.90;;;;;;5056190;28;20710;-73
2022/01/29 11:42:56;;;;;;;7.67;5.50;;;12.20;99.90;;;;;;5055205;28;20169;-72
2022/01/29 11:45:40;;;;;;;8.43;4.60;;;12.10;99.90;;;;;;5056309;28;20218;-72
2022/01/29 11:48:08;;;;;;;6.13;4.60;;;12.10;99.90;;;;;;5056271;28;20251;-72
2022/01/29 11:50:33;;;;;;;7.43;5.80;;;12.20;99.90;;;;;;5055656;28;20284;-72
2022/01/29 11:53:02;;;;;;;9.60;5.27;;;12.30;99.90;;;;;;5056341;28;20169;-72
2022/01/29 11:55:35;;;;;;;10.37;4.80;;;12.30;99.90;;;;;;5055743;28;20182;-73
2022/01/29 11:58:13;;;;;;;8.47;5.50;;;12.10;99.90;;;;;;5055466;28;20192;-73
2022/01/29 12:00:39;;;;;;;7.20;4.17;;;12.10;99.90;;;;;;5056109;28;20310;-72
2022/01/29 12:03:05;;;;;;;9.83;4.67;;;12.10;99.90;;;;;;5056044;28;20173;-73
2022/01/29 12:08:40;;;;;;;8.50;3.80;;;12.00;99.90;;;;;;5055507;28;20231;-71
2022/01/29 12:11:13;;;;;;;5.20;3.90;;;11.90;99.90;;;;;;5055234;28;20181;-71
2022/01/29 12:13:40;;;;;;;9.17;4.57;;;11.90;99.90;;;;;;5055731;28;20185;-73
2022/01/29 12:16:09;;;;;;;8.07;3.43;;;12.00;99.90;;;;;;5055176;28;20492;-73
2022/01/29 12:18:36;;;;;;;7.30;4.17;;;11.90;99.90;;;;;;5055020;28;20257;-72
2022/01/29 12:21:06;;;;;;;7.57;3.90;;;11.90;99.90;;;;;;5054650;28;20166;-73
2022/01/29 12:23:49;;;;;;;6.37;3.83;;;11.90;99.90;;;;;;5054526;28;20196;-73
2022/01/29 12:26:19;;;;;;;6.77;3.70;;;11.90;99.90;;;;;;5054635;28;20279;-71
2022/01/29 12:28:50;;;;;;;49.60;31.50;;;12.00;99.90;;;;;;5055162;28;20657;-72
2022/01/29 12:31:17;;;;;;;8.47;6.97;;;11.90;99.90;;;;;;5054530;28;20267;-73
2022/01/29 12:33:43;;;;;;;8.87;5.57;;;12.00;99.90;;;;;;5054956;28;20203;-72
2022/01/29 12:36:09;;;;;;;7.67;4.60;;;12.00;99.90;;;;;;5054457;28;20177;-72
2022/01/29 12:38:40;;;;;;;5.77;3.90;;;12.00;99.90;;;;;;5054940;28;20169;-73
2022/01/29 12:41:09;;;;;;;9.27;3.80;;;12.00;99.90;;;;;;5054001;28;20192;-72
2022/01/29 12:43:53;;;;;;;10.93;7.33;;;12.10;99.90;;;;;;5055020;28;20189;-73
2022/01/29 12:46:22;;;;;;;7.67;3.70;;;12.00;99.90;;;;;;5055056;28;20203;-72
2022/01/29 12:49:11;;;;;;;6.80;3.73;;;12.10;99.90;;;;;;5054797;28;20197;-71
2022/01/29 12:51:54;;;;;;;6.90;3.77;;;12.20;99.90;;;;;;5054585;28;20174;-72
2022/01/29 12:54:20;;;;;;;6.17;3.40;;;12.20;99.90;;;;;;5054492;28;20260;-72
2022/01/29 12:56:46;;;;;;;6.70;3.10;;;12.20;99.90;;;;;;5054391;28;20174;-72